Time;durP1;ratioP1;P1;durP2;ratioP2;P2;SDS_P1;SDS_P2;PMS_P1;PMS_P2;Temp;Humidity;BMP_temperature;BMP_pressure;BME280_temperature;BME280_humidity;BME280_pressure;Samples;Min_cycle;Max_cycle;Signal;HPM_P1;HPM_P2
2022/11/16 00:02:05;;;;;;;22.38;9.93;;;;;;;8.61;100.00;96715.72;4949163;28;20046;-60
2022/11/16 00:04:30;;;;;;;20.25;9.82;;;;;;;8.74;100.00;96720.25;4949011;28;20034;-60
2022/11/16 00:06:55;;;;;;;19.98;9.90;;;;;;;8.83;100.00;96717.16;4947276;28;20074;-61
2022/11/16 00:09:21;;;;;;;18.80;9.70;;;;;;;8.77;100.00;96728.72;4952011;28;20467;-60
2022/11/16 00:11:54;;;;;;;20.00;10.30;;;;;;;9.12;100.00;96725.97;4947283;28;20039;-61
2022/11/16 00:14:21;;;;;;;21.05;10.32;;;;;;;8.83;100.00;96722.34;4948119;28;20030;-60
2022/11/16 00:16:46;;;;;;;19.77;10.65;;;;;;;8.68;100.00;96718.81;4947133;28;20039;-60
2022/11/16 00:19:12;;;;;;;21.08;10.57;;;;;;;8.52;100.00;96716.19;4947544;28;20026;-61
2022/11/16 00:21:37;;;;;;;20.58;10.48;;;;;;;8.52;100.00;96715.38;4947202;28;20043;-60
2022/11/16 00:24:04;;;;;;;23.42;11.20;;;;;;;8.10;100.00;96710.56;4948083;28;20023;-61
2022/11/16 00:26:29;;;;;;;21.42;10.27;;;;;;;8.40;100.00;96722.00;4948797;28;20043;-61
2022/11/16 00:28:55;;;;;;;25.92;10.73;;;;;;;7.95;100.00;96705.31;4950322;28;20093;-64
2022/11/16 00:31:21;;;;;;;20.23;10.00;;;;;;;8.25;100.00;96693.34;4944761;28;20714;-60
2022/11/16 00:33:47;;;;;;;20.85;11.20;;;;;;;7.95;100.00;96700.13;4949887;28;20019;-60
2022/11/16 00:36:13;;;;;;;22.20;11.23;;;;;;;7.90;100.00;96690.81;4945736;28;20447;-60
2022/11/16 00:38:39;;;;;;;24.80;10.80;;;;;;;7.90;100.00;96693.41;4947158;28;20558;-62
2022/11/16 00:41:06;;;;;;;22.92;10.43;;;;;;;8.00;100.00;96692.94;4947026;28;20126;-65
2022/11/16 00:43:32;;;;;;;22.60;11.25;;;;;;;7.59;100.00;96694.13;4945640;28;20039;-63
2022/11/16 00:45:58;;;;;;;23.00;10.32;;;;;;;8.18;100.00;96686.78;4944594;28;20506;-61
2022/11/16 00:48:23;;;;;;;22.95;11.75;;;;;;;7.91;100.00;96679.50;4947227;28;20524;-61
2022/11/16 00:50:48;;;;;;;22.08;10.45;;;;;;;8.20;100.00;96673.72;4947690;28;20051;-61
2022/11/16 00:53:17;;;;;;;23.42;11.75;;;;;;;8.05;100.00;96668.41;4948841;28;20143;-62
2022/11/16 00:55:44;;;;;;;22.52;10.68;;;;;;;8.25;100.00;96672.56;4945976;28;20062;-60
2022/11/16 00:58:10;;;;;;;21.10;10.82;;;;;;;8.33;100.00;96679.09;4946381;28;20038;-60
2022/11/16 01:00:35;;;;;;;22.73;10.85;;;;;;;8.21;100.00;96690.97;4946386;28;20154;-61
2022/11/16 01:03:01;;;;;;;21.33;10.30;;;;;;;8.36;100.00;96692.75;4949943;28;20715;-60
2022/11/16 01:05:26;;;;;;;22.40;11.60;;;;;;;8.43;100.00;96680.31;4947898;28;20279;-62
2022/11/16 01:07:52;;;;;;;25.85;10.55;;;;;;;8.25;100.00;96677.75;4945448;28;20026;-60
2022/11/16 01:10:20;;;;;;;21.73;11.18;;;;;;;8.49;100.00;96691.22;4946962;28;20035;-60
2022/11/16 01:12:48;;;;;;;22.52;11.20;;;;;;;8.55;100.00;96692.66;4945220;28;20034;-60
2022/11/16 01:15:15;;;;;;;22.25;11.07;;;;;;;8.45;100.00;96691.47;4947841;28;20033;-60
2022/11/16 01:17:40;;;;;;;21.55;11.65;;;;;;;8.52;100.00;96690.22;4945688;28;20035;-63
2022/11/16 01:20:09;;;;;;;21.65;11.27;;;;;;;8.34;100.00;96694.59;4955585;28;20132;-60
2022/11/16 01:22:35;;;;;;;23.80;11.45;;;;;;;8.55;100.00;96674.47;4946628;28;20116;-61
2022/11/16 01:25:00;;;;;;;20.40;10.88;;;;;;;8.75;100.00;96675.97;4949406;28;20027;-61
2022/11/16 01:27:26;;;;;;;21.40;11.02;;;;;;;8.53;100.00;96686.72;4946791;28;20047;-60
2022/11/16 01:29:52;;;;;;;24.80;12.13;;;;;;;8.79;100.00;96687.06;4960032;28;20113;-60
2022/11/16 01:32:17;;;;;;;20.80;10.95;;;;;;;9.19;100.00;96695.22;4945135;28;20049;-60
2022/11/16 01:34:43;;;;;;;22.10;11.95;;;;;;;8.72;100.00;96691.75;4946191;28;20023;-60
2022/11/16 01:37:08;;;;;;;25.80;11.07;;;;;;;8.98;100.00;96687.69;4946758;28;20046;-61
2022/11/16 01:39:33;;;;;;;22.42;11.55;;;;;;;8.62;100.00;96677.56;4947789;28;20110;-60
2022/11/16 01:41:59;;;;;;;19.90;10.60;;;;;;;8.55;100.00;96678.84;4943853;28;20044;-60
2022/11/16 01:44:30;;;;;;;23.50;11.80;;;;;;;8.86;100.00;96678.81;4946813;28;20062;-60
2022/11/16 01:46:59;;;;;;;20.83;10.80;;;;;;;8.72;100.00;96675.31;4947706;28;20053;-63
2022/11/16 01:49:28;;;;;;;24.65;11.65;;;;;;;8.78;100.00;96682.75;4951130;28;20057;-61
2022/11/16 01:52:09;;;;;;;21.17;11.35;;;;;;;8.48;100.00;96683.50;4948138;28;20038;-61
2022/11/16 01:54:40;;;;;;;22.35;11.27;;;;;;;8.93;100.00;96678.47;4945414;28;20569;-60
2022/11/16 01:57:10;;;;;;;21.70;11.10;;;;;;;8.85;100.00;96676.31;4946416;28;20051;-62
2022/11/16 01:59:36;;;;;;;23.90;12.18;;;;;;;8.69;100.00;96676.28;4946516;28;20042;-60
2022/11/16 02:02:02;;;;;;;20.42;11.27;;;;;;;9.19;100.00;96674.41;4946812;28;20046;-60
2022/11/16 02:04:28;;;;;;;22.50;11.52;;;;;;;8.98;100.00;96672.09;4947136;28;20038;-62
2022/11/16 02:07:02;;;;;;;22.33;11.15;;;;;;;8.50;100.00;96671.28;4946001;28;20104;-61
2022/11/16 02:09:53;;;;;;;23.42;11.32;;;;;;;9.30;100.00;96681.59;4945707;28;20088;-62
2022/11/16 02:13:01;;;;;;;22.65;11.48;;;;;;;9.13;100.00;96675.59;4945655;28;20085;-61
2022/11/16 02:15:37;;;;;;;21.30;10.93;;;;;;;9.12;100.00;96678.31;4944246;28;20039;-60
2022/11/16 02:18:09;;;;;;;22.02;11.35;;;;;;;8.51;100.00;96667.75;4942872;28;20023;-61
2022/11/16 02:20:50;;;;;;;22.38;12.20;;;;;;;8.62;100.00;96670.63;4944873;28;20146;-61
2022/11/16 02:24:00;;;;;;;20.13;11.32;;;;;;;8.74;100.00;96670.88;4946149;28;20026;-61
2022/11/16 02:27:00;;;;;;;21.90;10.52;;;;;;;8.79;100.00;96674.06;4945701;28;20028;-61
2022/11/16 02:29:36;;;;;;;19.65;11.05;;;;;;;8.94;100.00;96675.78;4945017;28;20039;-60
2022/11/16 02:32:06;;;;;;;21.48;11.13;;;;;;;8.86;100.00;96662.41;4947166;28;20389;-62
2022/11/16 02:34:38;;;;;;;23.25;11.68;;;;;;;8.82;100.00;96666.06;4947657;28;20070;-61
2022/11/16 02:37:06;;;;;;;22.10;11.07;;;;;;;8.71;100.00;96668.41;4947620;28;20039;-61
2022/11/16 02:39:35;;;;;;;22.20;10.77;;;;;;;8.55;100.00;96656.28;4945336;28;20122;-61
2022/11/16 02:42:04;;;;;;;21.63;10.23;;;;;;;8.46;100.00;96664.56;4945364;28;20047;-60
2022/11/16 02:44:33;;;;;;;21.45;11.00;;;;;;;8.43;100.00;96669.91;4945467;28;20023;-60
2022/11/16 02:47:03;;;;;;;19.75;10.40;;;;;;;8.80;100.00;96657.50;4944885;28;20042;-62
2022/11/16 02:49:32;;;;;;;22.10;10.98;;;;;;;8.79;100.00;96666.25;4943073;28;20671;-61
2022/11/16 02:51:57;;;;;;;20.77;10.50;;;;;;;8.26;100.00;96663.84;4945554;28;20039;-61
2022/11/16 02:54:23;;;;;;;22.08;11.05;;;;;;;8.46;100.00;96664.56;4944453;28;20616;-64
2022/11/16 02:56:49;;;;;;;22.60;11.18;;;;;;;8.75;100.00;96659.53;4945825;28;20801;-60
2022/11/16 02:59:15;;;;;;;22.23;10.85;;;;;;;8.89;100.00;96662.22;4945667;28;20118;-62
2022/11/16 03:01:47;;;;;;;22.50;10.98;;;;;;;8.78;100.00;96664.56;4943882;28;20049;-60
2022/11/16 03:04:40;;;;;;;20.63;11.23;;;;;;;8.52;100.00;96656.44;4947713;28;20083;-61
2022/11/16 03:07:09;;;;;;;21.98;11.43;;;;;;;8.36;100.00;96661.56;4944679;28;20075;-61
2022/11/16 03:09:37;;;;;;;21.83;11.18;;;;;;;8.26;100.00;96653.44;4942653;28;20144;-63
2022/11/16 03:12:08;;;;;;;24.83;11.80;;;;;;;8.66;100.00;96651.31;4945273;28;20122;-61
2022/11/16 03:14:56;;;;;;;20.05;10.20;;;;;;;8.62;100.00;96647.22;4945433;28;20031;-60
2022/11/16 03:17:35;;;;;;;22.05;11.00;;;;;;;9.12;100.00;96649.69;4947204;28;21075;-61
2022/11/16 03:20:19;;;;;;;21.08;10.50;;;;;;;8.36;100.00;96652.94;4942752;28;20039;-60
2022/11/16 03:22:51;;;;;;;20.70;10.75;;;;;;;8.61;100.00;96648.13;4946194;28;20105;-62
2022/11/16 03:25:19;;;;;;;23.75;11.27;;;;;;;8.58;100.00;96644.88;4943699;28;20015;-61
2022/11/16 03:28:13;;;;;;;21.52;11.23;;;;;;;8.54;100.00;96646.78;4948226;28;20804;-62
2022/11/16 03:30:48;;;;;;;23.58;11.13;;;;;;;8.67;100.00;96642.63;4943266;28;20054;-60
2022/11/16 03:33:29;;;;;;;23.23;11.13;;;;;;;8.53;100.00;96645.13;4943607;28;20507;-62
2022/11/16 03:36:02;;;;;;;20.98;10.60;;;;;;;8.14;100.00;96648.88;4944218;28;20576;-61
2022/11/16 03:38:30;;;;;;;24.38;12.15;;;;;;;8.58;100.00;96653.47;4943697;28;20026;-62
2022/11/16 03:41:00;;;;;;;21.33;11.25;;;;;;;8.89;100.00;96659.59;4955080;28;20051;-62
2022/11/16 03:43:26;;;;;;;25.63;11.88;;;;;;;8.86;100.00;96663.22;4953141;28;20114;-60
2022/11/16 03:45:52;;;;;;;26.38;12.30;;;;;;;8.47;100.00;96663.63;4946936;28;20092;-63
2022/11/16 03:48:18;;;;;;;22.15;10.80;;;;;;;9.03;100.00;96677.88;4946789;28;20029;-62
2022/11/16 03:50:44;;;;;;;23.83;11.30;;;;;;;8.99;100.00;96678.97;4946556;28;20035;-65
2022/11/16 03:53:09;;;;;;;24.25;11.70;;;;;;;8.78;100.00;96669.75;4948864;28;20047;-64
2022/11/16 03:55:34;;;;;;;23.90;11.93;;;;;;;8.68;100.00;96674.63;4946483;28;20067;-62
2022/11/16 03:58:00;;;;;;;22.83;11.27;;;;;;;8.96;100.00;96684.34;4949826;28;20050;-63
2022/11/16 04:00:25;;;;;;;25.27;12.05;;;;;;;8.92;100.00;96680.25;4948695;28;20035;-61
2022/11/16 04:02:51;;;;;;;27.20;12.52;;;;;;;9.05;100.00;96681.22;4949739;28;20137;-63
2022/11/16 04:25:08;;;;;;;29.80;13.38;;;;;;;8.55;100.00;96559.28;4945228;28;20099;-61
2022/11/16 04:30:17;;;;;;;29.73;12.00;;;;;;;8.93;100.00;96663.69;4937624;28;20128;-65
2022/11/16 04:38:10;;;;;;;27.65;13.35;;;;;;;8.94;100.00;96695.78;5028309;28;20072;-61
2022/11/16 04:40:36;;;;;;;25.20;12.00;;;;;;;9.04;100.00;96696.91;5028897;28;20120;-62
2022/11/16 04:43:03;;;;;;;27.02;11.80;;;;;;;8.65;100.00;96691.22;5028586;28;20033;-62
2022/11/16 04:48:15;;;;;;;29.27;13.82;;;;;;;8.60;100.00;96685.47;5026380;28;20032;-61
2022/11/16 04:50:40;;;;;;;28.25;13.10;;;;;;;8.24;100.00;96691.66;5025893;28;20602;-60
2022/11/16 04:53:06;;;;;;;26.83;12.65;;;;;;;8.65;100.00;96682.59;5028018;28;20489;-60
2022/11/16 04:55:32;;;;;;;32.60;13.40;;;;;;;8.62;100.00;96675.81;5029059;28;20030;-63
2022/11/16 04:57:59;;;;;;;29.88;13.90;;;;;;;8.38;100.00;96674.47;5028377;28;20049;-61
2022/11/16 05:00:24;;;;;;;32.67;13.40;;;;;;;8.61;100.00;96663.72;5025438;28;20037;-61
2022/11/16 05:02:50;;;;;;;36.55;15.05;;;;;;;8.44;100.00;96679.41;5027787;28;20029;-64
2022/11/16 05:05:15;;;;;;;27.90;12.65;;;;;;;8.61;100.00;96668.91;5027288;28;20017;-65
2022/11/16 05:07:41;;;;;;;21.80;9.10;;;;;;;8.91;100.00;96675.97;5027055;28;20064;-63
2022/11/16 05:10:07;;;;;;;25.75;12.05;;;;;;;8.62;100.00;96673.22;5028010;28;20045;-63
2022/11/16 05:12:33;;;;;;;31.75;12.50;;;;;;;8.49;100.00;96679.97;5028463;28;20032;-61
2022/11/16 05:14:59;;;;;;;29.05;12.73;;;;;;;8.60;100.00;96666.41;5029260;28;20025;-61
2022/11/16 05:17:26;;;;;;;30.73;13.43;;;;;;;8.30;100.00;96660.13;5025980;28;20079;-62
2022/11/16 05:22:42;;;;;;;29.92;13.15;;;;;;;8.04;100.00;96661.53;4974626;28;20048;-62
2022/11/16 05:25:08;;;;;;;25.27;11.23;;;;;;;8.82;100.00;96659.13;4929327;28;20033;-64
2022/11/16 05:27:34;;;;;;;25.35;11.10;;;;;;;8.88;100.00;96661.38;4926065;29;20643;-61
2022/11/16 05:29:59;;;;;;;25.45;11.55;;;;;;;8.50;100.00;96650.47;4927799;28;20046;-60
2022/11/16 05:32:26;;;;;;;25.50;11.70;;;;;;;8.98;100.00;96640.88;5024547;28;20041;-61
2022/11/16 05:34:52;;;;;;;28.42;11.98;;;;;;;8.67;100.00;96653.00;5026816;28;20079;-60
2022/11/16 05:37:19;;;;;;;26.77;10.75;;;;;;;9.17;100.00;96655.44;5027584;28;20556;-63
2022/11/16 05:39:45;;;;;;;32.05;14.35;;;;;;;8.53;100.00;96652.94;5023534;28;20033;-60
2022/11/16 05:42:11;;;;;;;28.33;12.98;;;;;;;7.97;100.00;96649.78;5025244;28;20070;-61
2022/11/16 05:44:36;;;;;;;31.90;13.88;;;;;;;8.38;100.00;96643.31;5026319;28;20055;-62
2022/11/16 05:47:01;;;;;;;28.48;12.65;;;;;;;8.55;100.00;96640.69;5026421;28;20041;-62
2022/11/16 05:49:27;;;;;;;23.60;11.40;;;;;;;8.61;100.00;96642.94;5027181;28;20144;-60
2022/11/16 05:51:53;;;;;;;27.75;11.68;;;;;;;8.96;100.00;96641.91;5026313;28;20064;-61
2022/11/16 05:54:26;;;;;;;31.05;13.73;;;;;;;8.66;100.00;96638.31;5026720;28;20099;-60
2022/11/16 05:56:52;;;;;;;37.47;15.20;;;;;;;8.87;100.00;96636.28;5026280;28;20712;-62
2022/11/16 05:59:19;;;;;;;35.42;15.23;;;;;;;8.81;100.00;96633.22;5026360;28;20017;-60
2022/11/16 06:01:45;;;;;;;24.52;10.95;;;;;;;8.94;100.00;96638.56;5026392;28;20034;-62
2022/11/16 06:04:12;;;;;;;37.38;15.77;;;;;;;8.58;100.00;96640.50;5024904;28;20068;-60
2022/11/16 06:06:37;;;;;;;33.78;15.13;;;;;;;9.04;100.00;96640.56;5027280;28;20049;-62
2022/11/16 06:09:03;;;;;;;27.83;11.82;;;;;;;9.13;100.00;96636.56;5022945;28;20029;-60
2022/11/16 06:11:30;;;;;;;32.40;13.77;;;;;;;9.21;100.00;96641.38;5023816;28;20550;-62
2022/11/16 06:13:55;;;;;;;33.50;14.23;;;;;;;9.43;100.00;96647.00;5025977;28;20747;-60
2022/11/16 06:16:21;;;;;;;33.00;14.00;;;;;;;9.07;100.00;96642.97;5025045;28;20526;-62
2022/11/16 06:18:46;;;;;;;29.63;14.02;;;;;;;9.03;100.00;96638.88;5025975;28;20037;-61
2022/11/16 06:21:14;;;;;;;19.67;9.85;;;;;;;9.45;100.00;96639.94;5026429;28;20041;-60
2022/11/16 06:23:40;;;;;;;22.48;10.48;;;;;;;9.43;100.00;96640.97;5034358;28;20029;-60
2022/11/16 06:26:06;;;;;;;33.38;13.23;;;;;;;9.07;100.00;96640.38;5026987;28;20045;-60
2022/11/16 06:28:33;;;;;;;31.65;12.75;;;;;;;9.32;100.00;96644.19;5024131;28;20614;-62
2022/11/16 06:30:58;;;;;;;26.48;12.00;;;;;;;9.49;100.00;96645.81;5024479;28;20479;-64
2022/11/16 06:33:23;;;;;;;35.50;14.77;;;;;;;9.68;100.00;96645.56;5025186;28;20905;-61
2022/11/16 06:35:49;;;;;;;27.70;13.40;;;;;;;8.89;100.00;96646.59;5024024;28;20048;-62
2022/11/16 06:38:17;;;;;;;26.80;12.98;;;;;;;9.02;100.00;96642.41;5026362;28;20951;-60
2022/11/16 06:40:54;;;;;;;28.13;12.80;;;;;;;8.92;100.00;96630.84;5025449;28;20045;-60
2022/11/16 06:43:20;;;;;;;37.17;16.25;;;;;;;9.52;100.00;96639.56;5026060;28;20076;-60
2022/11/16 06:45:49;;;;;;;28.65;13.73;;;;;;;9.21;100.00;96642.19;5026331;28;20818;-60
2022/11/16 06:48:15;;;;;;;28.95;13.68;;;;;;;9.71;100.00;96640.19;5026994;28;20104;-60
2022/11/16 06:50:41;;;;;;;33.08;14.10;;;;;;;9.42;100.00;96640.09;5024697;28;20458;-63
2022/11/16 06:53:06;;;;;;;26.73;13.00;;;;;;;9.30;100.00;96635.63;5026161;28;20037;-59
2022/11/16 06:55:31;;;;;;;36.67;14.73;;;;;;;9.35;100.00;96638.78;5025303;28;20920;-60
2022/11/16 06:57:57;;;;;;;36.05;14.43;;;;;;;9.72;100.00;96635.81;5026671;28;20030;-60
2022/11/16 07:00:22;;;;;;;34.00;14.27;;;;;;;9.37;100.00;96634.31;5024505;28;20666;-60
2022/11/16 07:02:47;;;;;;;34.92;14.02;;;;;;;9.49;100.00;96639.78;5024109;28;20037;-60
2022/11/16 07:05:13;;;;;;;27.42;13.20;;;;;;;9.84;100.00;96635.06;5025364;28;20040;-60
2022/11/16 07:07:38;;;;;;;31.42;12.90;;;;;;;9.72;100.00;96638.41;5023550;28;20033;-60
2022/11/16 07:10:04;;;;;;;23.83;11.82;;;;;;;9.22;100.00;96637.81;5023514;28;20028;-61
2022/11/16 07:12:29;;;;;;;30.92;13.32;;;;;;;9.84;100.00;96641.13;5026276;28;20079;-61
2022/11/16 07:14:54;;;;;;;34.35;12.68;;;;;;;9.39;100.00;96629.91;5024210;28;20133;-62
2022/11/16 07:17:20;;;;;;;26.33;11.77;;;;;;;9.89;100.00;96637.38;5029350;28;20724;-60
2022/11/16 07:19:45;;;;;;;37.03;13.40;;;;;;;10.09;100.00;96634.44;5028692;28;20029;-60
2022/11/16 07:22:11;;;;;;;30.17;13.35;;;;;;;9.83;100.00;96638.59;5029062;28;20045;-60
2022/11/16 07:24:36;;;;;;;27.10;12.90;;;;;;;9.98;100.00;96636.84;5030696;28;20061;-61
2022/11/16 07:27:01;;;;;;;25.10;12.23;;;;;;;10.12;100.00;96646.44;5028663;28;20044;-60
2022/11/16 07:29:27;;;;;;;28.65;12.85;;;;;;;10.09;100.00;96646.59;5029597;28;20071;-59
2022/11/16 07:31:52;;;;;;;24.40;11.23;;;;;;;10.17;100.00;96653.03;5027326;28;20037;-60
2022/11/16 07:34:18;;;;;;;31.98;13.35;;;;;;;10.37;100.00;96645.81;5030028;28;20032;-61
2022/11/16 07:36:43;;;;;;;24.58;12.15;;;;;;;10.35;100.00;96647.69;5028730;28;20041;-61
2022/11/16 07:39:09;;;;;;;40.25;15.02;;;;;;;10.08;100.00;96647.56;5030881;28;20018;-60
2022/11/16 07:41:37;;;;;;;25.10;12.88;;;;;;;9.84;100.00;96646.31;5028736;28;20127;-61
2022/11/16 07:44:03;;;;;;;38.80;14.52;;;;;;;9.90;100.00;96652.94;5028756;28;20136;-59
2022/11/16 07:46:28;;;;;;;33.22;13.27;;;;;;;10.25;100.00;96649.13;5029613;28;20111;-60
2022/11/16 07:48:54;;;;;;;23.27;11.80;;;;;;;10.39;100.00;96660.41;5027908;28;20025;-59
2022/11/16 07:51:19;;;;;;;24.95;11.45;;;;;;;10.43;100.00;96668.88;5027156;28;20141;-60
2022/11/16 07:53:44;;;;;;;26.30;11.80;;;;;;;10.25;100.00;96672.59;5029452;28;20118;-59
2022/11/16 07:56:10;;;;;;;29.67;12.48;;;;;;;10.03;100.00;96684.28;5028328;28;20150;-61
2022/11/16 07:58:37;;;;;;;22.88;12.05;;;;;;;10.01;100.00;96681.78;5030442;28;20639;-59
2022/11/16 08:01:06;;;;;;;23.45;11.68;;;;;;;10.37;100.00;96700.53;5030595;28;20041;-60
2022/11/16 08:03:32;;;;;;;24.85;11.23;;;;;;;10.22;100.00;96697.91;5026902;28;20534;-61
2022/11/16 08:06:11;;;;;;;22.23;11.05;;;;;;;10.30;100.00;96707.84;5026872;28;20493;-60
2022/11/16 08:08:37;;;;;;;21.42;11.43;;;;;;;10.55;100.00;96714.19;5029427;28;20735;-60
2022/11/16 08:11:07;;;;;;;22.77;11.48;;;;;;;10.20;100.00;96704.97;5030370;28;20041;-62
2022/11/16 08:13:35;;;;;;;21.98;11.13;;;;;;;10.32;100.00;96708.63;5028388;28;20769;-62
2022/11/16 08:16:02;;;;;;;21.63;11.23;;;;;;;10.31;100.00;96709.56;5027996;28;20143;-63
2022/11/16 08:18:28;;;;;;;18.67;10.43;;;;;;;10.21;100.00;96716.22;5028406;28;20057;-60
2022/11/16 08:20:54;;;;;;;22.23;11.25;;;;;;;10.09;100.00;96709.13;5026118;28;20577;-60
2022/11/16 08:23:19;;;;;;;20.63;11.13;;;;;;;10.20;100.00;96710.19;5028638;28;20021;-60
2022/11/16 08:25:44;;;;;;;21.38;10.82;;;;;;;10.25;100.00;96711.66;5025537;28;20482;-60
2022/11/16 08:28:10;;;;;;;19.63;10.55;;;;;;;10.27;100.00;96707.19;5028360;28;20024;-61
2022/11/16 08:30:38;;;;;;;21.85;11.07;;;;;;;10.28;100.00;96707.09;5025688;28;20044;-60
2022/11/16 08:33:03;;;;;;;22.00;11.02;;;;;;;10.42;100.00;96716.72;5027502;28;20706;-60
2022/11/16 08:35:29;;;;;;;21.00;11.40;;;;;;;10.73;100.00;96718.31;5027518;28;20650;-61
2022/11/16 08:37:54;;;;;;;27.95;13.25;;;;;;;10.83;100.00;96709.91;5028136;28;20068;-60
2022/11/16 08:40:19;;;;;;;27.65;14.95;;;;;;;10.96;100.00;96711.63;5027691;28;20025;-60
2022/11/16 08:42:45;;;;;;;30.55;13.55;;;;;;;11.19;100.00;96702.34;5028095;28;20056;-60
2022/11/16 08:45:10;;;;;;;26.83;12.20;;;;;;;11.31;100.00;96712.94;5026880;28;20083;-60
2022/11/16 08:47:35;;;;;;;26.48;12.50;;;;;;;11.10;100.00;96715.13;5028574;28;20017;-60
2022/11/16 08:50:01;;;;;;;25.13;13.32;;;;;;;10.65;100.00;96709.28;5028045;28;20049;-60
2022/11/16 08:52:26;;;;;;;24.95;12.55;;;;;;;11.26;100.00;96710.59;5026415;28;20049;-62
2022/11/16 08:54:51;;;;;;;24.98;11.23;;;;;;;11.17;100.00;96700.75;5026741;28;20853;-63
2022/11/16 08:57:17;;;;;;;27.55;12.75;;;;;;;11.23;100.00;96697.78;5026121;28;20057;-61
2022/11/16 08:59:42;;;;;;;32.88;13.07;;;;;;;11.12;100.00;96695.00;5025399;28;20074;-61
2022/11/16 09:02:08;;;;;;;44.55;14.90;;;;;;;11.63;100.00;96695.16;5027554;28;20037;-60
2022/11/16 09:04:34;;;;;;;31.38;13.02;;;;;;;11.37;100.00;96692.47;5026922;28;20140;-64
2022/11/16 09:06:59;;;;;;;31.15;11.70;;;;;;;11.81;100.00;96690.47;5027983;28;20780;-62
2022/11/16 09:09:24;;;;;;;27.17;12.30;;;;;;;11.73;100.00;96700.63;5028849;28;20083;-61
2022/11/16 09:11:52;;;;;;;22.42;10.80;;;;;;;11.63;100.00;96691.72;5027444;28;20115;-60
2022/11/16 09:14:17;;;;;;;26.00;12.00;;;;;;;11.88;100.00;96701.38;5027221;28;20064;-60
2022/11/16 09:16:43;;;;;;;23.58;11.63;;;;;;;11.73;100.00;96662.28;5026689;28;20748;-62
2022/11/16 09:19:09;;;;;;;26.48;12.43;;;;;;;11.87;100.00;96637.84;5029750;28;20053;-62
2022/11/16 09:21:36;;;;;;;20.77;11.32;;;;;;;11.52;100.00;96629.75;5027771;28;20033;-61
2022/11/16 09:24:02;;;;;;;37.13;13.27;;;;;;;37.03;100.00;96755.34;5027227;28;20029;-61
2022/11/16 09:26:27;;;;;;;29.00;10.90;;;;;;;24.99;100.00;96734.66;5025287;28;20651;-61
2022/11/16 09:28:57;;;;;;;26.85;11.55;;;;;;;18.02;100.00;96717.88;5024638;28;20024;-62
2022/11/16 09:31:28;;;;;;;33.70;11.50;;;;;;;16.05;100.00;96717.41;5024513;28;20040;-60
2022/11/16 09:33:57;;;;;;;28.08;13.05;;;;;;;16.43;100.00;96720.38;5027123;28;20021;-60
2022/11/16 09:36:23;;;;;;;19.98;10.38;;;;;;;15.53;100.00;96724.28;5025554;28;20120;-60
2022/11/16 09:38:49;;;;;;;18.27;10.13;;;;;;;14.55;100.00;96727.63;5027729;28;20022;-61
2022/11/16 09:41:24;;;;;;;20.10;10.15;;;;;;;13.25;100.00;96718.91;5026415;28;20040;-60
2022/11/16 09:44:01;;;;;;;20.67;9.90;;;;;;;13.91;100.00;96723.72;5025290;28;20798;-60
2022/11/16 09:46:39;;;;;;;22.02;10.00;;;;;;;14.25;100.00;96726.41;5026511;28;20049;-61
2022/11/16 09:49:12;;;;;;;18.38;9.27;;;;;;;13.42;100.00;96722.13;5026567;28;20035;-60
2022/11/16 09:51:40;;;;;;;19.80;9.15;;;;;;;13.54;100.00;96728.22;5023039;28;20045;-64
2022/11/16 09:54:10;;;;;;;16.13;8.65;;;;;;;13.08;100.00;96724.50;5026137;28;20052;-61
2022/11/16 09:56:41;;;;;;;26.20;9.55;;;;;;;13.14;100.00;96729.31;5025340;28;20037;-61
2022/11/16 09:59:21;;;;;;;22.88;9.82;;;;;;;12.66;100.00;96730.06;5025100;28;20071;-61
2022/11/16 10:02:04;;;;;;;23.83;10.27;;;;;;;12.92;100.00;96728.22;5023073;28;20041;-60
2022/11/16 10:04:37;;;;;;;15.50;8.68;;;;;;;12.75;100.00;96733.78;5027564;28;20029;-60
2022/11/16 10:07:21;;;;;;;15.90;8.88;;;;;;;12.85;100.00;96729.59;5025495;28;20146;-61
2022/11/16 10:09:47;;;;;;;19.10;9.32;;;;;;;13.60;100.00;96725.16;5024473;28;20029;-63
2022/11/16 10:12:42;;;;;;;20.42;11.48;;;;;;;12.96;100.00;96721.00;5024728;28;20044;-60
2022/11/16 10:15:28;;;;;;;18.67;9.65;;;;;;;12.86;100.00;96726.00;5028305;28;20098;-60
2022/11/16 10:18:00;;;;;;;18.83;10.07;;;;;;;12.90;100.00;96724.88;5025876;28;20060;-60
2022/11/16 10:20:47;;;;;;;20.40;9.82;;;;;;;12.97;100.00;96716.56;5023660;28;20049;-62
2022/11/16 10:23:19;;;;;;;18.50;9.55;;;;;;;13.36;100.00;96722.53;5025534;28;20032;-60
2022/11/16 10:25:51;;;;;;;16.92;9.20;;;;;;;12.84;100.00;96712.22;5024890;28;20044;-62
2022/11/16 10:28:44;;;;;;;22.02;9.00;;;;;;;13.70;100.00;96723.53;5025226;28;20021;-61
2022/11/16 10:31:21;;;;;;;24.88;13.07;;;;;;;13.02;100.00;96714.47;5023963;28;20063;-63
2022/11/16 10:33:49;;;;;;;20.17;11.07;;;;;;;12.76;100.00;96714.53;5026710;28;20040;-61
2022/11/16 10:36:15;;;;;;;22.10;10.57;;;;;;;13.35;100.00;96713.03;5024643;28;20099;-61
2022/11/16 10:38:42;;;;;;;25.35;10.35;;;;;;;13.53;100.00;96719.53;5025676;28;20033;-60
2022/11/16 10:41:30;;;;;;;38.22;19.70;;;;;;;13.27;100.00;96719.63;5023448;28;20071;-61
2022/11/16 10:43:57;;;;;;;23.45;12.18;;;;;;;13.51;100.00;96721.44;5029488;28;20533;-62
2022/11/16 10:46:30;;;;;;;15.20;8.52;;;;;;;13.24;100.00;96714.59;5026325;28;20143;-64
2022/11/16 10:49:02;;;;;;;15.73;8.35;;;;;;;13.24;100.00;96719.00;5024371;28;20119;-59
2022/11/16 10:51:27;;;;;;;16.98;8.30;;;;;;;13.49;100.00;96712.84;5028868;28;20032;-62
2022/11/16 10:53:54;;;;;;;15.55;9.20;;;;;;;13.49;100.00;96713.69;5031026;28;20055;-63
2022/11/16 10:56:36;;;;;;;16.73;8.38;;;;;;;13.39;100.00;96717.09;5028626;28;20086;-61
2022/11/16 10:59:09;;;;;;;16.73;8.90;;;;;;;14.02;100.00;96710.66;5029248;28;20029;-61
2022/11/16 11:01:42;;;;;;;15.45;8.82;;;;;;;13.47;100.00;96714.72;5028515;28;20041;-61
2022/11/16 11:04:24;;;;;;;19.75;9.70;;;;;;;12.98;100.00;96720.88;5029860;28;20026;-59
2022/11/16 11:06:54;;;;;;;15.90;8.55;;;;;;;13.04;100.00;96716.03;5026987;28;20143;-61
2022/11/16 11:09:33;;;;;;;17.52;9.07;;;;;;;14.18;100.00;96715.56;5029672;28;20026;-59
2022/11/16 11:12:37;;;;;;;19.55;9.77;;;;;;;14.39;100.00;96712.22;5028593;28;20049;-61
2022/11/16 11:15:12;;;;;;;18.40;8.98;;;;;;;13.80;100.00;96707.94;5030094;28;20059;-61
2022/11/16 11:17:46;;;;;;;23.92;10.20;;;;;;;14.21;100.00;96717.13;5028336;28;20077;-61
2022/11/16 11:20:14;;;;;;;18.67;9.10;;;;;;;14.37;100.00;96701.88;5028624;28;20061;-64
2022/11/16 11:22:47;;;;;;;15.68;9.93;;;;;;;14.41;100.00;96700.69;5028839;28;20032;-61
2022/11/16 11:25:22;;;;;;;16.90;9.55;;;;;;;14.69;100.00;96706.44;5027909;28;20029;-61
2022/11/16 11:27:49;;;;;;;15.50;9.55;;;;;;;14.81;100.00;96708.13;5028825;28;20051;-61
2022/11/16 11:30:20;;;;;;;15.07;8.73;;;;;;;14.26;100.00;96696.59;5029283;28;20025;-64
2022/11/16 11:32:46;;;;;;;14.85;8.07;;;;;;;15.01;100.00;96700.44;5029236;28;20056;-61
2022/11/16 11:35:41;;;;;;;18.00;9.18;;;;;;;14.58;100.00;96698.56;5027719;28;20013;-61
2022/11/16 11:38:06;;;;;;;14.75;8.77;;;;;;;14.64;100.00;96688.41;5022550;28;20048;-61
2022/11/16 11:40:31;;;;;;;15.88;9.07;;;;;;;14.51;100.00;96685.06;5025281;28;20044;-61
2022/11/16 11:43:03;;;;;;;15.23;8.82;;;;;;;14.23;100.00;96684.56;5029715;28;20658;-61
2022/11/16 11:45:40;;;;;;;14.13;8.20;;;;;;;14.80;100.00;96680.19;5027208;28;20044;-62
2022/11/16 11:48:46;;;;;;;18.10;10.55;;;;;;;14.63;100.00;96684.13;5029001;28;20052;-62
2022/11/16 11:51:21;;;;;;;15.38;9.93;;;;;;;14.84;100.00;96673.72;5028901;28;20033;-63
2022/11/16 11:54:01;;;;;;;16.58;9.85;;;;;;;14.74;100.00;96678.06;5030085;28;20047;-61
2022/11/16 11:56:30;;;;;;;15.48;8.40;;;;;;;14.90;100.00;96677.66;5029217;28;20073;-62
2022/11/16 11:58:56;;;;;;;16.67;9.35;;;;;;;14.76;100.00;96683.16;5028737;28;20544;-64